Manila Express — VRCX7 — position and weather

sailwx.info

Track history (hours):
 
Tides and Currents Weather Stations Pressure Air Temp Water Temp Dewpoint Dewpoint Depression Visibility Wind Speed Wind Dir Waves Ship Positions

Manila Express

Last reported at 2014-Aug-30 14:31 UTC. Time now 2014-Sep-01 14:11 UTC.
Position S 37°14' E 150°11'.

Length 260 m; draft 11.1 m.

Type: Ship (hazmat cat A). MMSI: 477830800.

Date/timePositionNaut miles runAvg speedWind from/ knotsBaromVisibWave heightAir tempDewpointWater temp
2014-Aug-30 14:31S 37°14' E 150°11'1818.5
2014-Aug-30 13:33S 37°30' E 150°05'1818.1
2014-Aug-30 12:33S 37°46' E 149°53'1818.7
2014-Aug-30 11:33S 37°58' E 149°35'6018.4
2014-Aug-30 08:17S 38°35' E 148°34'1418.8
2014-Aug-30 07:33S 38°44' E 148°21'1919.1
2014-Aug-30 06:33S 38°51' E 147°58'1919.0
2014-Aug-30 05:33S 38°57' E 147°35'1918.8
2014-Aug-30 04:33S 39°04' E 147°13'1818.1
2014-Aug-30 03:33S 39°11' E 146°51'1817.5
2014-Aug-30 02:33S 39°17' E 146°30'1717.4
2014-Aug-30 01:33S 39°17' E 146°08'1817.7
2014-Aug-30 00:33S 39°09' E 145°47'73 1.8
2014-Aug-28 08:30S 38°18' E 144°41'1512.4
2014-Aug-28 07:18S 38°27' E 144°26'1216.0
2014-Aug-28 06:33S 38°35' E 144°15'  
Track history (hours):
 
Tides and Currents Weather Stations Pressure Air Temp Water Temp Dewpoint Dewpoint Depression Visibility Wind Speed Wind Dir Waves Ship Positions

Manila Express

Last reported at 2014-Aug-30 14:31 UTC. Time now 2014-Sep-01 14:11 UTC.
Position S 37°14' E 150°11'.

Length 260 m; draft 11.1 m.

Type: Ship (hazmat cat A). MMSI: 477830800.

Date/timePositionNaut miles runAvg speedWind from/ knotsBaromVisibWave heightAir tempDewpointWater temp
2014-Aug-30 14:31S 37°14' E 150°11'1818.5
2014-Aug-30 13:33S 37°30' E 150°05'1818.1
2014-Aug-30 12:33S 37°46' E 149°53'1818.7
2014-Aug-30 11:33S 37°58' E 149°35'6018.4
2014-Aug-30 08:17S 38°35' E 148°34'1418.8
2014-Aug-30 07:33S 38°44' E 148°21'1919.1
2014-Aug-30 06:33S 38°51' E 147°58'1919.0
2014-Aug-30 05:33S 38°57' E 147°35'1918.8
2014-Aug-30 04:33S 39°04' E 147°13'1818.1
2014-Aug-30 03:33S 39°11' E 146°51'1817.5
2014-Aug-30 02:33S 39°17' E 146°30'1717.4
2014-Aug-30 01:33S 39°17' E 146°08'1817.7
2014-Aug-30 00:33S 39°09' E 145°47'73 1.8
2014-Aug-28 08:30S 38°18' E 144°41'1512.4
2014-Aug-28 07:18S 38°27' E 144°26'1216.0
2014-Aug-28 06:33S 38°35' E 144°15'  

Dump ship's entire track history